Diamond Point, Washington
Current Conditions -  °F | °C
As of 1:53 AM on Sunday 21 Dec 2014 (Local Time) from KCLM Reporting Station
Few Clouds Few Clouds  
Wind Chill: 51°   Ceiling: Unl
Heat Index: 51°   Visibility: 10mi
Dew Point: 42°   Wind: 13mph
Humidity: 71%   Direction: 290°WNW
Pressure: 29.64"   Gusts: 23mph
Location:  48.0015°N, 123.09°W
Report Text: KCLM 210953Z AUTO 29011G20KT 10SM FEW060 11/06 A2964 RMK AO2 SLP037 T01060056 TSNO $
Loading
Personal Weather Stations






























Interactive Weather Map New forecast layout! Learn more

10-Day Weather Forecast

Advertisements
Track Severe Weather on mobile